sensor_id;sensor_type;location;lat;lon;timestamp;P1;durP1;ratioP1;P2;durP2;ratioP2
75059;SDS011;63640;59.264;18.116;2023-10-09T00:01:45;99.05;;;57.05;;
75059;SDS011;63640;59.264;18.116;2023-10-09T00:04:11;98.00;;;56.55;;
75059;SDS011;63640;59.264;18.116;2023-10-09T00:06:39;99.30;;;58.58;;
75059;SDS011;63640;59.264;18.116;2023-10-09T00:09:07;98.78;;;57.17;;
75059;SDS011;63640;59.264;18.116;2023-10-09T00:14:12;97.20;;;54.85;;
75059;SDS011;63640;59.264;18.116;2023-10-09T00:16:40;83.88;;;55.83;;
75059;SDS011;63640;59.264;18.116;2023-10-09T00:19:12;83.15;;;54.47;;
75059;SDS011;63640;59.264;18.116;2023-10-09T00:21:39;82.68;;;53.45;;
75059;SDS011;63640;59.264;18.116;2023-10-09T00:24:09;83.70;;;55.03;;
75059;SDS011;63640;59.264;18.116;2023-10-09T00:26:48;83.88;;;55.83;;
75059;SDS011;63640;59.264;18.116;2023-10-09T00:29:17;82.45;;;53.08;;
75059;SDS011;63640;59.264;18.116;2023-10-09T00:31:55;83.13;;;55.00;;
75059;SDS011;63640;59.264;18.116;2023-10-09T00:34:28;82.95;;;53.13;;
75059;SDS011;63640;59.264;18.116;2023-10-09T00:36:54;84.05;;;55.80;;
75059;SDS011;63640;59.264;18.116;2023-10-09T00:39:20;83.65;;;54.60;;
75059;SDS011;63640;59.264;18.116;2023-10-09T00:42:01;82.72;;;53.03;;
75059;SDS011;63640;59.264;18.116;2023-10-09T00:44:28;82.90;;;53.30;;
75059;SDS011;63640;59.264;18.116;2023-10-09T00:47:07;83.35;;;54.47;;
75059;SDS011;63640;59.264;18.116;2023-10-09T00:49:51;83.35;;;54.55;;
75059;SDS011;63640;59.264;18.116;2023-10-09T00:52:44;84.03;;;55.38;;
75059;SDS011;63640;59.264;18.116;2023-10-09T00:55:19;84.13;;;55.15;;
75059;SDS011;63640;59.264;18.116;2023-10-09T00:58:04;83.32;;;53.97;;
75059;SDS011;63640;59.264;18.116;2023-10-09T01:00:37;83.43;;;54.53;;
75059;SDS011;63640;59.264;18.116;2023-10-09T01:03:08;84.50;;;56.63;;
75059;SDS011;63640;59.264;18.116;2023-10-09T01:05:54;82.32;;;51.13;;
75059;SDS011;63640;59.264;18.116;2023-10-09T01:08:39;83.72;;;54.53;;
75059;SDS011;63640;59.264;18.116;2023-10-09T01:11:05;83.78;;;54.55;;
75059;SDS011;63640;59.264;18.116;2023-10-09T01:13:35;82.65;;;52.28;;
75059;SDS011;63640;59.264;18.116;2023-10-09T01:16:07;82.72;;;52.65;;
75059;SDS011;63640;59.264;18.116;2023-10-09T01:18:51;84.38;;;56.00;;
75059;SDS011;63640;59.264;18.116;2023-10-09T01:21:18;83.65;;;55.30;;
75059;SDS011;63640;59.264;18.116;2023-10-09T01:23:49;84.80;;;56.92;;
75059;SDS011;63640;59.264;18.116;2023-10-09T01:26:44;83.15;;;53.88;;
75059;SDS011;63640;59.264;18.116;2023-10-09T01:29:13;87.90;;;53.17;;
75059;SDS011;63640;59.264;18.116;2023-10-09T01:31:58;95.00;;;54.92;;
75059;SDS011;63640;59.264;18.116;2023-10-09T01:34:27;96.57;;;56.40;;
75059;SDS011;63640;59.264;18.116;2023-10-09T01:37:11;93.22;;;59.47;;
75059;SDS011;63640;59.264;18.116;2023-10-09T01:39:45;90.28;;;53.83;;
75059;SDS011;63640;59.264;18.116;2023-10-09T01:42:13;100.85;;;57.28;;
75059;SDS011;63640;59.264;18.116;2023-10-09T01:44:48;81.80;;;51.20;;
75059;SDS011;63640;59.264;18.116;2023-10-09T01:47:14;83.22;;;54.33;;
75059;SDS011;63640;59.264;18.116;2023-10-09T01:49:40;84.53;;;54.72;;
75059;SDS011;63640;59.264;18.116;2023-10-09T01:52:11;84.28;;;53.85;;
75059;SDS011;63640;59.264;18.116;2023-10-09T01:54:41;83.65;;;53.08;;
75059;SDS011;63640;59.264;18.116;2023-10-09T01:57:08;84.68;;;54.88;;
75059;SDS011;63640;59.264;18.116;2023-10-09T01:59:40;84.35;;;54.15;;
75059;SDS011;63640;59.264;18.116;2023-10-09T02:02:09;84.28;;;54.22;;
75059;SDS011;63640;59.264;18.116;2023-10-09T02:04:57;83.90;;;53.25;;
75059;SDS011;63640;59.264;18.116;2023-10-09T02:10:20;84.30;;;54.40;;
75059;SDS011;63640;59.264;18.116;2023-10-09T02:12:53;84.78;;;55.20;;
75059;SDS011;63640;59.264;18.116;2023-10-09T02:15:23;84.88;;;55.88;;
75059;SDS011;63640;59.264;18.116;2023-10-09T02:18:07;83.30;;;52.13;;
75059;SDS011;63640;59.264;18.116;2023-10-09T02:20:47;83.03;;;51.20;;
75059;SDS011;63640;59.264;18.116;2023-10-09T02:23:21;84.22;;;54.55;;
75059;SDS011;63640;59.264;18.116;2023-10-09T02:25:56;84.70;;;55.58;;
75059;SDS011;63640;59.264;18.116;2023-10-09T02:28:22;83.75;;;53.58;;
75059;SDS011;63640;59.264;18.116;2023-10-09T02:30:48;83.88;;;53.83;;
75059;SDS011;63640;59.264;18.116;2023-10-09T02:33:14;84.07;;;54.42;;
75059;SDS011;63640;59.264;18.116;2023-10-09T02:35:52;84.28;;;54.80;;
75059;SDS011;63640;59.264;18.116;2023-10-09T02:38:20;84.07;;;53.35;;
75059;SDS011;63640;59.264;18.116;2023-10-09T02:40:51;85.03;;;56.20;;
75059;SDS011;63640;59.264;18.116;2023-10-09T02:43:45;83.82;;;53.40;;
75059;SDS011;63640;59.264;18.116;2023-10-09T02:46:20;83.85;;;54.03;;
75059;SDS011;63640;59.264;18.116;2023-10-09T02:48:53;84.82;;;55.08;;
75059;SDS011;63640;59.264;18.116;2023-10-09T02:51:22;84.60;;;54.85;;
75059;SDS011;63640;59.264;18.116;2023-10-09T02:54:01;84.53;;;55.00;;
75059;SDS011;63640;59.264;18.116;2023-10-09T02:56:46;83.60;;;53.58;;
75059;SDS011;63640;59.264;18.116;2023-10-09T02:59:19;83.35;;;52.90;;
75059;SDS011;63640;59.264;18.116;2023-10-09T03:01:47;83.55;;;53.92;;
75059;SDS011;63640;59.264;18.116;2023-10-09T03:04:12;84.80;;;55.85;;
75059;SDS011;63640;59.264;18.116;2023-10-09T03:06:40;83.95;;;54.65;;
75059;SDS011;63640;59.264;18.116;2023-10-09T03:09:17;83.30;;;53.30;;
75059;SDS011;63640;59.264;18.116;2023-10-09T03:14:27;83.10;;;52.53;;
75059;SDS011;63640;59.264;18.116;2023-10-09T03:16:54;82.82;;;51.00;;
75059;SDS011;63640;59.264;18.116;2023-10-09T03:19:22;83.68;;;54.65;;
75059;SDS011;63640;59.264;18.116;2023-10-09T03:21:50;84.15;;;55.47;;
75059;SDS011;63640;59.264;18.116;2023-10-09T03:24:15;83.38;;;53.67;;
75059;SDS011;63640;59.264;18.116;2023-10-09T03:26:41;83.30;;;53.05;;
75059;SDS011;63640;59.264;18.116;2023-10-09T03:29:10;84.10;;;55.28;;
75059;SDS011;63640;59.264;18.116;2023-10-09T03:31:35;82.95;;;52.15;;
75059;SDS011;63640;59.264;18.116;2023-10-09T03:34:05;84.25;;;54.75;;
75059;SDS011;63640;59.264;18.116;2023-10-09T03:36:33;83.18;;;53.30;;
75059;SDS011;63640;59.264;18.116;2023-10-09T03:39:04;84.82;;;55.97;;
75059;SDS011;63640;59.264;18.116;2023-10-09T03:41:43;83.00;;;52.13;;
75059;SDS011;63640;59.264;18.116;2023-10-09T03:44:12;84.78;;;56.17;;
75059;SDS011;63640;59.264;18.116;2023-10-09T03:46:39;84.47;;;55.33;;
75059;SDS011;63640;59.264;18.116;2023-10-09T03:49:09;83.68;;;53.65;;
75059;SDS011;63640;59.264;18.116;2023-10-09T03:51:36;83.72;;;54.03;;
75059;SDS011;63640;59.264;18.116;2023-10-09T03:54:02;84.32;;;55.15;;
75059;SDS011;63640;59.264;18.116;2023-10-09T03:56:32;83.93;;;55.17;;
75059;SDS011;63640;59.264;18.116;2023-10-09T03:58:59;85.22;;;57.17;;
75059;SDS011;63640;59.264;18.116;2023-10-09T04:01:26;83.43;;;53.35;;
75059;SDS011;63640;59.264;18.116;2023-10-09T04:03:57;84.78;;;56.25;;
75059;SDS011;63640;59.264;18.116;2023-10-09T04:06:25;83.43;;;53.90;;
75059;SDS011;63640;59.264;18.116;2023-10-09T04:09:11;84.13;;;55.65;;
75059;SDS011;63640;59.264;18.116;2023-10-09T04:14:15;84.20;;;55.70;;
75059;SDS011;63640;59.264;18.116;2023-10-09T04:16:57;85.20;;;57.03;;
75059;SDS011;63640;59.264;18.116;2023-10-09T04:19:30;83.93;;;54.05;;
75059;SDS011;63640;59.264;18.116;2023-10-09T04:22:04;83.78;;;54.78;;
75059;SDS011;63640;59.264;18.116;2023-10-09T04:24:33;6.78;;;2.63;;
75059;SDS011;63640;59.264;18.116;2023-10-09T04:27:06;4.72;;;1.40;;
75059;SDS011;63640;59.264;18.116;2023-10-09T04:29:33;3.67;;;1.40;;
75059;SDS011;63640;59.264;18.116;2023-10-09T04:34:33;2.35;;;0.82;;
75059;SDS011;63640;59.264;18.116;2023-10-09T04:37:03;3.53;;;1.35;;
75059;SDS011;63640;59.264;18.116;2023-10-09T04:39:34;5.65;;;2.10;;
75059;SDS011;63640;59.264;18.116;2023-10-09T04:42:01;11.13;;;3.25;;
75059;SDS011;63640;59.264;18.116;2023-10-09T04:44:46;7.50;;;3.80;;
75059;SDS011;63640;59.264;18.116;2023-10-09T04:47:44;6.07;;;2.90;;
75059;SDS011;63640;59.264;18.116;2023-10-09T04:50:23;6.82;;;1.90;;
75059;SDS011;63640;59.264;18.116;2023-10-09T04:52:55;5.47;;;1.83;;
75059;SDS011;63640;59.264;18.116;2023-10-09T04:55:20;10.60;;;1.92;;
75059;SDS011;63640;59.264;18.116;2023-10-09T04:57:50;3.65;;;1.40;;
75059;SDS011;63640;59.264;18.116;2023-10-09T05:00:34;6.88;;;1.23;;
75059;SDS011;63640;59.264;18.116;2023-10-09T05:03:01;6.13;;;1.40;;
75059;SDS011;63640;59.264;18.116;2023-10-09T05:05:35;3.83;;;1.25;;
75059;SDS011;63640;59.264;18.116;2023-10-09T05:08:04;3.05;;;1.08;;
75059;SDS011;63640;59.264;18.116;2023-10-09T05:10:49;24.05;;;7.60;;
75059;SDS011;63640;59.264;18.116;2023-10-09T05:13:31;3.17;;;1.25;;
75059;SDS011;63640;59.264;18.116;2023-10-09T05:16:06;4.32;;;1.52;;
75059;SDS011;63640;59.264;18.116;2023-10-09T05:18:50;3.75;;;1.38;;
75059;SDS011;63640;59.264;18.116;2023-10-09T05:21:31;5.68;;;1.55;;
75059;SDS011;63640;59.264;18.116;2023-10-09T05:23:58;4.18;;;1.50;;
75059;SDS011;63640;59.264;18.116;2023-10-09T05:26:40;5.57;;;1.60;;
75059;SDS011;63640;59.264;18.116;2023-10-09T05:29:15;5.47;;;1.63;;
75059;SDS011;63640;59.264;18.116;2023-10-09T05:32:02;7.25;;;1.67;;
75059;SDS011;63640;59.264;18.116;2023-10-09T05:34:38;5.65;;;1.95;;
75059;SDS011;63640;59.264;18.116;2023-10-09T05:37:25;5.28;;;1.75;;
75059;SDS011;63640;59.264;18.116;2023-10-09T05:39:52;8.95;;;2.42;;
75059;SDS011;63640;59.264;18.116;2023-10-09T05:42:27;9.38;;;2.00;;
75059;SDS011;63640;59.264;18.116;2023-10-09T05:45:02;4.63;;;1.60;;
75059;SDS011;63640;59.264;18.116;2023-10-09T05:50:21;4.13;;;1.55;;
75059;SDS011;63640;59.264;18.116;2023-10-09T05:52:51;4.28;;;1.45;;
75059;SDS011;63640;59.264;18.116;2023-10-09T05:55:20;4.90;;;1.20;;
75059;SDS011;63640;59.264;18.116;2023-10-09T05:57:49;4.50;;;1.30;;
75059;SDS011;63640;59.264;18.116;2023-10-09T06:00:27;5.68;;;2.38;;
75059;SDS011;63640;59.264;18.116;2023-10-09T06:03:11;4.55;;;1.40;;
75059;SDS011;63640;59.264;18.116;2023-10-09T06:05:46;3.70;;;1.13;;
75059;SDS011;63640;59.264;18.116;2023-10-09T06:08:31;4.03;;;1.20;;
75059;SDS011;63640;59.264;18.116;2023-10-09T06:11:06;3.83;;;1.17;;
75059;SDS011;63640;59.264;18.116;2023-10-09T06:13:53;3.28;;;1.10;;
75059;SDS011;63640;59.264;18.116;2023-10-09T06:16:32;5.57;;;0.90;;
75059;SDS011;63640;59.264;18.116;2023-10-09T06:19:04;3.65;;;1.15;;
75059;SDS011;63640;59.264;18.116;2023-10-09T06:21:35;4.32;;;1.40;;
75059;SDS011;63640;59.264;18.116;2023-10-09T06:24:07;5.10;;;1.38;;
75059;SDS011;63640;59.264;18.116;2023-10-09T06:26:43;2.85;;;0.98;;
75059;SDS011;63640;59.264;18.116;2023-10-09T06:29:24;2.50;;;1.10;;
75059;SDS011;63640;59.264;18.116;2023-10-09T06:32:02;4.05;;;1.40;;
75059;SDS011;63640;59.264;18.116;2023-10-09T06:34:53;3.65;;;1.10;;
75059;SDS011;63640;59.264;18.116;2023-10-09T06:37:40;7.97;;;1.10;;
75059;SDS011;63640;59.264;18.116;2023-10-09T06:40:26;2.70;;;0.85;;
75059;SDS011;63640;59.264;18.116;2023-10-09T06:43:10;3.75;;;1.20;;
75059;SDS011;63640;59.264;18.116;2023-10-09T06:45:57;5.68;;;1.00;;
75059;SDS011;63640;59.264;18.116;2023-10-09T06:48:26;5.28;;;1.30;;
75059;SDS011;63640;59.264;18.116;2023-10-09T06:53:51;5.53;;;1.10;;
75059;SDS011;63640;59.264;18.116;2023-10-09T06:59:02;2.83;;;0.98;;
75059;SDS011;63640;59.264;18.116;2023-10-09T07:01:49;3.70;;;0.80;;
75059;SDS011;63640;59.264;18.116;2023-10-09T07:04:34;3.13;;;1.00;;
75059;SDS011;63640;59.264;18.116;2023-10-09T07:07:00;3.95;;;1.10;;
75059;SDS011;63640;59.264;18.116;2023-10-09T07:09:27;3.08;;;1.00;;
75059;SDS011;63640;59.264;18.116;2023-10-09T07:12:10;2.85;;;1.05;;
75059;SDS011;63640;59.264;18.116;2023-10-09T07:14:45;3.67;;;0.90;;
75059;SDS011;63640;59.264;18.116;2023-10-09T07:17:11;3.50;;;1.10;;
75059;SDS011;63640;59.264;18.116;2023-10-09T07:19:55;2.90;;;0.80;;
75059;SDS011;63640;59.264;18.116;2023-10-09T07:22:21;4.25;;;1.13;;
75059;SDS011;63640;59.264;18.116;2023-10-09T07:24:48;7.82;;;1.58;;
75059;SDS011;63640;59.264;18.116;2023-10-09T07:27:28;2.95;;;0.80;;
75059;SDS011;63640;59.264;18.116;2023-10-09T07:30:13;3.10;;;1.00;;
75059;SDS011;63640;59.264;18.116;2023-10-09T07:35:45;3.58;;;1.10;;
75059;SDS011;63640;59.264;18.116;2023-10-09T07:38:18;2.67;;;0.90;;
75059;SDS011;63640;59.264;18.116;2023-10-09T07:40:45;3.10;;;1.10;;
75059;SDS011;63640;59.264;18.116;2023-10-09T07:43:29;2.45;;;0.80;;
75059;SDS011;63640;59.264;18.116;2023-10-09T07:46:14;1.70;;;0.52;;
75059;SDS011;63640;59.264;18.116;2023-10-09T07:48:57;2.45;;;0.80;;
75059;SDS011;63640;59.264;18.116;2023-10-09T07:51:26;2.42;;;0.80;;
75059;SDS011;63640;59.264;18.116;2023-10-09T07:54:00;3.45;;;1.00;;
75059;SDS011;63640;59.264;18.116;2023-10-09T07:56:35;2.20;;;0.70;;
75059;SDS011;63640;59.264;18.116;2023-10-09T07:59:11;1.73;;;0.70;;
75059;SDS011;63640;59.264;18.116;2023-10-09T08:01:41;2.85;;;0.98;;
75059;SDS011;63640;59.264;18.116;2023-10-09T08:04:24;3.17;;;0.63;;
75059;SDS011;63640;59.264;18.116;2023-10-09T08:07:06;3.53;;;1.05;;
75059;SDS011;63640;59.264;18.116;2023-10-09T08:09:38;1.88;;;0.90;;
75059;SDS011;63640;59.264;18.116;2023-10-09T08:12:15;2.28;;;0.90;;
75059;SDS011;63640;59.264;18.116;2023-10-09T08:15:03;2.47;;;0.90;;
75059;SDS011;63640;59.264;18.116;2023-10-09T08:17:54;2.25;;;0.80;;
75059;SDS011;63640;59.264;18.116;2023-10-09T08:20:41;2.17;;;0.90;;
75059;SDS011;63640;59.264;18.116;2023-10-09T08:23:26;2.28;;;0.80;;
75059;SDS011;63640;59.264;18.116;2023-10-09T08:26:04;2.53;;;0.80;;
75059;SDS011;63640;59.264;18.116;2023-10-09T08:28:42;3.40;;;1.15;;
75059;SDS011;63640;59.264;18.116;2023-10-09T08:31:12;2.22;;;0.70;;
75059;SDS011;63640;59.264;18.116;2023-10-09T08:33:59;2.95;;;0.85;;
75059;SDS011;63640;59.264;18.116;2023-10-09T08:36:26;2.30;;;1.02;;
75059;SDS011;63640;59.264;18.116;2023-10-09T08:39:15;2.97;;;0.90;;
75059;SDS011;63640;59.264;18.116;2023-10-09T08:41:53;4.13;;;0.90;;
75059;SDS011;63640;59.264;18.116;2023-10-09T08:44:23;2.63;;;0.82;;
75059;SDS011;63640;59.264;18.116;2023-10-09T08:46:51;1.60;;;0.57;;
75059;SDS011;63640;59.264;18.116;2023-10-09T08:49:19;1.63;;;0.70;;
75059;SDS011;63640;59.264;18.116;2023-10-09T08:51:46;2.28;;;0.70;;
75059;SDS011;63640;59.264;18.116;2023-10-09T08:54:13;2.25;;;0.60;;
75059;SDS011;63640;59.264;18.116;2023-10-09T08:56:40;3.88;;;0.77;;
75059;SDS011;63640;59.264;18.116;2023-10-09T08:59:14;2.38;;;0.65;;
75059;SDS011;63640;59.264;18.116;2023-10-09T09:01:44;2.35;;;0.70;;
75059;SDS011;63640;59.264;18.116;2023-10-09T09:04:33;1.95;;;0.80;;
75059;SDS011;63640;59.264;18.116;2023-10-09T09:07:00;1.05;;;0.60;;
75059;SDS011;63640;59.264;18.116;2023-10-09T09:09:27;2.63;;;0.98;;
75059;SDS011;63640;59.264;18.116;2023-10-09T09:11:55;1.50;;;0.63;;
75059;SDS011;63640;59.264;18.116;2023-10-09T09:14:21;3.47;;;0.95;;
75059;SDS011;63640;59.264;18.116;2023-10-09T09:17:03;2.45;;;0.73;;
75059;SDS011;63640;59.264;18.116;2023-10-09T09:19:31;2.00;;;0.63;;
75059;SDS011;63640;59.264;18.116;2023-10-09T09:21:57;2.38;;;0.90;;
75059;SDS011;63640;59.264;18.116;2023-10-09T09:24:36;2.72;;;0.90;;
75059;SDS011;63640;59.264;18.116;2023-10-09T09:27:03;2.67;;;0.90;;
75059;SDS011;63640;59.264;18.116;2023-10-09T09:32:28;2.60;;;0.90;;
75059;SDS011;63640;59.264;18.116;2023-10-09T09:35:03;2.70;;;0.90;;
75059;SDS011;63640;59.264;18.116;2023-10-09T09:37:33;2.10;;;0.60;;
75059;SDS011;63640;59.264;18.116;2023-10-09T09:40:08;2.25;;;0.73;;
75059;SDS011;63640;59.264;18.116;2023-10-09T09:42:43;2.42;;;1.00;;
75059;SDS011;63640;59.264;18.116;2023-10-09T09:45:13;2.78;;;1.10;;
75059;SDS011;63640;59.264;18.116;2023-10-09T09:47:39;2.67;;;0.90;;
75059;SDS011;63640;59.264;18.116;2023-10-09T09:50:12;3.30;;;0.93;;
75059;SDS011;63640;59.264;18.116;2023-10-09T09:52:49;3.40;;;1.00;;
75059;SDS011;63640;59.264;18.116;2023-10-09T09:55:18;2.35;;;0.88;;
75059;SDS011;63640;59.264;18.116;2023-10-09T09:57:48;2.00;;;0.80;;
75059;SDS011;63640;59.264;18.116;2023-10-09T10:00:18;2.50;;;0.90;;
75059;SDS011;63640;59.264;18.116;2023-10-09T10:03:04;1.70;;;0.70;;
75059;SDS011;63640;59.264;18.116;2023-10-09T10:05:33;1.95;;;0.80;;
75059;SDS011;63640;59.264;18.116;2023-10-09T10:07:59;2.28;;;0.90;;
75059;SDS011;63640;59.264;18.116;2023-10-09T10:10:35;1.88;;;0.80;;
75059;SDS011;63640;59.264;18.116;2023-10-09T10:13:13;3.03;;;0.95;;
75059;SDS011;63640;59.264;18.116;2023-10-09T10:18:22;2.05;;;0.85;;
75059;SDS011;63640;59.264;18.116;2023-10-09T10:23:59;2.53;;;0.90;;
75059;SDS011;63640;59.264;18.116;2023-10-09T10:26:39;2.03;;;0.93;;
75059;SDS011;63640;59.264;18.116;2023-10-09T10:29:15;2.45;;;0.90;;
75059;SDS011;63640;59.264;18.116;2023-10-09T10:31:54;7.82;;;1.50;;
75059;SDS011;63640;59.264;18.116;2023-10-09T10:37:36;2.25;;;0.80;;
75059;SDS011;63640;59.264;18.116;2023-10-09T10:40:25;2.33;;;0.90;;
75059;SDS011;63640;59.264;18.116;2023-10-09T10:43:05;2.13;;;0.90;;
75059;SDS011;63640;59.264;18.116;2023-10-09T10:46:09;1.70;;;0.80;;
75059;SDS011;63640;59.264;18.116;2023-10-09T10:48:54;1.95;;;0.88;;
75059;SDS011;63640;59.264;18.116;2023-10-09T10:51:38;3.08;;;0.98;;
75059;SDS011;63640;59.264;18.116;2023-10-09T10:54:04;2.15;;;0.80;;
75059;SDS011;63640;59.264;18.116;2023-10-09T10:56:49;3.03;;;0.73;;
75059;SDS011;63640;59.264;18.116;2023-10-09T10:59:15;2.00;;;0.77;;
75059;SDS011;63640;59.264;18.116;2023-10-09T11:01:48;4.35;;;1.10;;
75059;SDS011;63640;59.264;18.116;2023-10-09T11:04:26;2.92;;;0.85;;
75059;SDS011;63640;59.264;18.116;2023-10-09T11:06:56;2.63;;;1.13;;
75059;SDS011;63640;59.264;18.116;2023-10-09T11:09:53;3.92;;;0.90;;
75059;SDS011;63640;59.264;18.116;2023-10-09T11:15:31;1.90;;;0.73;;
75059;SDS011;63640;59.264;18.116;2023-10-09T11:18:10;3.30;;;0.90;;
75059;SDS011;63640;59.264;18.116;2023-10-09T11:20:51;1.75;;;0.70;;
75059;SDS011;63640;59.264;18.116;2023-10-09T11:23:29;3.28;;;0.70;;
75059;SDS011;63640;59.264;18.116;2023-10-09T11:25:58;3.05;;;0.90;;
75059;SDS011;63640;59.264;18.116;2023-10-09T11:28:45;4.22;;;1.05;;
75059;SDS011;63640;59.264;18.116;2023-10-09T11:31:22;2.35;;;0.80;;
75059;SDS011;63640;59.264;18.116;2023-10-09T11:33:51;3.03;;;0.98;;
75059;SDS011;63640;59.264;18.116;2023-10-09T11:36:18;4.60;;;1.20;;
75059;SDS011;63640;59.264;18.116;2023-10-09T11:41:39;2.05;;;0.63;;
75059;SDS011;63640;59.264;18.116;2023-10-09T11:44:06;7.60;;;1.42;;
75059;SDS011;63640;59.264;18.116;2023-10-09T11:46:31;2.35;;;0.85;;
75059;SDS011;63640;59.264;18.116;2023-10-09T11:49:13;2.85;;;0.80;;
75059;SDS011;63640;59.264;18.116;2023-10-09T11:51:50;2.72;;;1.00;;
75059;SDS011;63640;59.264;18.116;2023-10-09T11:54:40;1.98;;;1.00;;
75059;SDS011;63640;59.264;18.116;2023-10-09T11:57:06;1.90;;;0.80;;
75059;SDS011;63640;59.264;18.116;2023-10-09T11:59:31;1.90;;;0.90;;
75059;SDS011;63640;59.264;18.116;2023-10-09T12:02:11;1.02;;;0.60;;
75059;SDS011;63640;59.264;18.116;2023-10-09T12:04:38;2.33;;;0.80;;
75059;SDS011;63640;59.264;18.116;2023-10-09T12:07:10;2.10;;;0.80;;
75059;SDS011;63640;59.264;18.116;2023-10-09T12:09:36;2.05;;;1.10;;
75059;SDS011;63640;59.264;18.116;2023-10-09T12:12:03;2.13;;;0.70;;
75059;SDS011;63640;59.264;18.116;2023-10-09T12:14:29;3.05;;;0.77;;
75059;SDS011;63640;59.264;18.116;2023-10-09T12:17:03;1.73;;;0.70;;
75059;SDS011;63640;59.264;18.116;2023-10-09T12:19:35;2.33;;;0.73;;
75059;SDS011;63640;59.264;18.116;2023-10-09T12:22:02;2.60;;;0.90;;
75059;SDS011;63640;59.264;18.116;2023-10-09T12:24:30;2.88;;;1.02;;
75059;SDS011;63640;59.264;18.116;2023-10-09T12:26:56;2.58;;;1.00;;
75059;SDS011;63640;59.264;18.116;2023-10-09T12:29:22;3.13;;;0.93;;
75059;SDS011;63640;59.264;18.116;2023-10-09T12:31:49;1.95;;;0.80;;
75059;SDS011;63640;59.264;18.116;2023-10-09T12:34:23;2.03;;;0.80;;
75059;SDS011;63640;59.264;18.116;2023-10-09T12:36:52;2.67;;;0.90;;
75059;SDS011;63640;59.264;18.116;2023-10-09T12:39:20;2.53;;;0.90;;
75059;SDS011;63640;59.264;18.116;2023-10-09T12:41:47;1.85;;;0.70;;
75059;SDS011;63640;59.264;18.116;2023-10-09T12:44:13;3.63;;;1.15;;
75059;SDS011;63640;59.264;18.116;2023-10-09T12:46:44;2.08;;;0.90;;
75059;SDS011;63640;59.264;18.116;2023-10-09T12:49:19;3.63;;;0.80;;
75059;SDS011;63640;59.264;18.116;2023-10-09T12:51:50;1.48;;;0.80;;
75059;SDS011;63640;59.264;18.116;2023-10-09T12:54:18;2.55;;;0.80;;
75059;SDS011;63640;59.264;18.116;2023-10-09T12:56:55;2.67;;;0.70;;
75059;SDS011;63640;59.264;18.116;2023-10-09T12:59:21;3.03;;;0.70;;
75059;SDS011;63640;59.264;18.116;2023-10-09T13:01:48;3.20;;;0.70;;
75059;SDS011;63640;59.264;18.116;2023-10-09T13:04:23;2.30;;;0.82;;
75059;SDS011;63640;59.264;18.116;2023-10-09T13:06:48;4.80;;;0.90;;
75059;SDS011;63640;59.264;18.116;2023-10-09T13:09:18;2.88;;;0.80;;
75059;SDS011;63640;59.264;18.116;2023-10-09T13:11:58;1.55;;;0.70;;
75059;SDS011;63640;59.264;18.116;2023-10-09T13:14:26;2.20;;;0.80;;
75059;SDS011;63640;59.264;18.116;2023-10-09T13:16:52;2.15;;;0.82;;
75059;SDS011;63640;59.264;18.116;2023-10-09T13:19:18;4.60;;;1.00;;
75059;SDS011;63640;59.264;18.116;2023-10-09T13:21:43;2.78;;;0.80;;
75059;SDS011;63640;59.264;18.116;2023-10-09T13:24:09;2.95;;;0.77;;
75059;SDS011;63640;59.264;18.116;2023-10-09T13:26:44;1.02;;;0.70;;
75059;SDS011;63640;59.264;18.116;2023-10-09T13:29:11;2.55;;;0.80;;
75059;SDS011;63640;59.264;18.116;2023-10-09T13:31:38;2.03;;;0.80;;
75059;SDS011;63640;59.264;18.116;2023-10-09T13:34:11;1.70;;;0.80;;
75059;SDS011;63640;59.264;18.116;2023-10-09T13:36:40;1.35;;;0.88;;
75059;SDS011;63640;59.264;18.116;2023-10-09T13:39:24;2.33;;;0.80;;
75059;SDS011;63640;59.264;18.116;2023-10-09T13:41:53;3.65;;;1.02;;
75059;SDS011;63640;59.264;18.116;2023-10-09T13:44:26;2.90;;;0.80;;
75059;SDS011;63640;59.264;18.116;2023-10-09T13:46:56;3.30;;;1.00;;
75059;SDS011;63640;59.264;18.116;2023-10-09T13:49:22;2.03;;;0.82;;
75059;SDS011;63640;59.264;18.116;2023-10-09T13:51:48;2.35;;;0.88;;
75059;SDS011;63640;59.264;18.116;2023-10-09T13:54:15;2.97;;;0.82;;
75059;SDS011;63640;59.264;18.116;2023-10-09T13:57:04;1.88;;;0.73;;
75059;SDS011;63640;59.264;18.116;2023-10-09T13:59:35;2.35;;;0.77;;
75059;SDS011;63640;59.264;18.116;2023-10-09T14:02:01;3.97;;;1.45;;
75059;SDS011;63640;59.264;18.116;2023-10-09T14:04:34;4.55;;;0.95;;
75059;SDS011;63640;59.264;18.116;2023-10-09T14:06:59;1.92;;;0.85;;
75059;SDS011;63640;59.264;18.116;2023-10-09T14:09:27;2.05;;;0.82;;
75059;SDS011;63640;59.264;18.116;2023-10-09T14:11:58;2.83;;;0.70;;
75059;SDS011;63640;59.264;18.116;2023-10-09T14:14:38;0.60;;;0.50;;
75059;SDS011;63640;59.264;18.116;2023-10-09T14:17:12;2.28;;;0.77;;
75059;SDS011;63640;59.264;18.116;2023-10-09T14:19:41;2.33;;;0.80;;
75059;SDS011;63640;59.264;18.116;2023-10-09T14:22:17;2.35;;;0.70;;
75059;SDS011;63640;59.264;18.116;2023-10-09T14:24:44;3.38;;;0.63;;
75059;SDS011;63640;59.264;18.116;2023-10-09T14:27:13;2.88;;;0.80;;
75059;SDS011;63640;59.264;18.116;2023-10-09T14:29:45;1.75;;;0.70;;
75059;SDS011;63640;59.264;18.116;2023-10-09T14:32:11;2.55;;;0.82;;
75059;SDS011;63640;59.264;18.116;2023-10-09T14:34:43;1.23;;;0.68;;
75059;SDS011;63640;59.264;18.116;2023-10-09T14:37:15;2.55;;;0.90;;
75059;SDS011;63640;59.264;18.116;2023-10-09T14:39:41;3.00;;;1.00;;
75059;SDS011;63640;59.264;18.116;2023-10-09T14:42:07;2.60;;;0.80;;
75059;SDS011;63640;59.264;18.116;2023-10-09T14:44:36;1.70;;;0.73;;
75059;SDS011;63640;59.264;18.116;2023-10-09T14:47:05;2.83;;;0.90;;
75059;SDS011;63640;59.264;18.116;2023-10-09T14:49:33;2.42;;;0.77;;
75059;SDS011;63640;59.264;18.116;2023-10-09T14:52:19;2.20;;;0.73;;
75059;SDS011;63640;59.264;18.116;2023-10-09T14:54:45;1.48;;;0.75;;
75059;SDS011;63640;59.264;18.116;2023-10-09T14:57:11;2.47;;;0.80;;
75059;SDS011;63640;59.264;18.116;2023-10-09T14:59:38;2.72;;;0.93;;
75059;SDS011;63640;59.264;18.116;2023-10-09T15:02:03;2.53;;;0.82;;
75059;SDS011;63640;59.264;18.116;2023-10-09T15:04:30;2.03;;;0.85;;
75059;SDS011;63640;59.264;18.116;2023-10-09T15:07:00;4.10;;;0.90;;
75059;SDS011;63640;59.264;18.116;2023-10-09T15:09:26;3.28;;;0.93;;
75059;SDS011;63640;59.264;18.116;2023-10-09T15:11:56;3.28;;;1.05;;
75059;SDS011;63640;59.264;18.116;2023-10-09T15:14:21;1.77;;;0.70;;
75059;SDS011;63640;59.264;18.116;2023-10-09T15:16:48;3.60;;;0.68;;
75059;SDS011;63640;59.264;18.116;2023-10-09T15:19:15;2.75;;;0.88;;
75059;SDS011;63640;59.264;18.116;2023-10-09T15:21:41;5.20;;;0.85;;
75059;SDS011;63640;59.264;18.116;2023-10-09T15:24:10;2.47;;;0.93;;
75059;SDS011;63640;59.264;18.116;2023-10-09T15:26:47;4.75;;;1.38;;
75059;SDS011;63640;59.264;18.116;2023-10-09T15:29:20;4.63;;;1.00;;
75059;SDS011;63640;59.264;18.116;2023-10-09T15:34:16;1.60;;;0.88;;
75059;SDS011;63640;59.264;18.116;2023-10-09T15:36:46;5.30;;;0.93;;
75059;SDS011;63640;59.264;18.116;2023-10-09T15:39:12;3.65;;;1.00;;
75059;SDS011;63640;59.264;18.116;2023-10-09T15:41:38;3.92;;;0.90;;
75059;SDS011;63640;59.264;18.116;2023-10-09T15:44:04;1.65;;;0.80;;
75059;SDS011;63640;59.264;18.116;2023-10-09T15:46:31;2.17;;;0.77;;